Airfield :
LOGIN :

Register | Disclaimer

   EN    FR    IT 

 










Legend :    VFR   Marginal VFR   IFR   Intensive IFR   Very Intensive IFR
Visi :
Ceiling :
>= 8 km
>= 3000ft
5 to 8 km
1000 to 3000 ft
1500m to 5 km
500 to 1000 ft
800 to 1500m
200 to 500 ft
< 800m
< 200 ft
Symbols :   Thunderstorms  Fog  Heavy snow  Heavy precipitations  Wind > 20 kt
SIGMETs :     Misc.  Thunderstorms  Icing  Turbulence  Mountain Waves  Volcanic Ashes






- Airport Elevation : 461 ft
- IATA code : WIE


ETOU - Wiesbaden Army

CURRENT METAR :
  • 221956Z AUTO 27012KT 9999 OVC029 10/04 A3025 RMK AO2 SLP250 T00980040 $

EXPIRED METARs :
  • 221936Z AUTO 26012KT 9999 OVC029 10/04 A3024 RMK AO2 SLP247 $
  • 221856Z AUTO 25011KT 9999 OVC030 10/04 A3024 RMK AO2 SLP247 T00970037 $
  • 221756Z AUTO 25011KT 9999 OVC034 10/02 A3022 RMK AO2 SLP241 T01010024 10107 20094 53006 $

Expired Forecast.



MET'MAP, your aeronautical weather chart ! - Copyright ORBIFLY December 2007 - Disclaimer

ORBIFLY MET'MAP TEAM :

Programming & Development : Alexandra Zaïnal
Concept & original design : Baudouin d'Aumeries
Assistance for programming : Marc-Olivier Méhu
Technical & hardware support : Manuel Goepfert

Contact : metmap@orbifly.com




SOURCES & CREDITS :

   NOAA